Smartville, California
Current Conditions -  °F | °C
As of 12:58 PM on Monday 24 Nov 2014 (Local Time) from KBAB Reporting Station
Clear Clear  
Wind Chill: 60°   Ceiling: Unl
Heat Index: 60°   Visibility: 10mi
Dew Point: 35°   Wind: 6mph
Humidity: 39%   Direction: 250°WSW
Pressure: 30.35"   Gusts: NA
Location:  39.21°N, 121.3°W
Report Text: KBAB 242058Z AUTO 25005KT 10SM CLR 15/02 A3035 RMK AO2 SLP356 T01540016 57016 $
Loading
Personal Weather Stations






























Interactive Weather Map New forecast layout! Learn more

10-Day Weather Forecast

Advertisements
Track Severe Weather on mobile